createdAt,value
2019-02-21T00:00:28.233Z,79.21
2019-02-21T00:02:29.337Z,79.21
2019-02-21T00:03:28.325Z,78.59
2019-02-21T00:04:28.203Z,78.80
2019-02-21T00:06:29.305Z,79.11
2019-02-21T00:07:28.235Z,79.11
2019-02-21T00:08:28.201Z,79.21
2019-02-21T00:09:28.264Z,79.31
2019-02-21T00:10:28.126Z,78.94
2019-02-21T00:11:28.142Z,79.41
2019-02-21T00:12:28.103Z,79.55
2019-02-21T00:13:28.175Z,79.55
2019-02-21T00:14:28.118Z,79.14
2019-02-21T00:15:28.172Z,79.45
2019-02-21T00:16:28.065Z,79.45
2019-02-21T00:17:28.079Z,79.86
2019-02-21T00:18:28.041Z,79.86
2019-02-21T00:19:28.119Z,79.86
2019-02-21T00:20:28.014Z,79.55
2019-02-21T00:22:29.166Z,80.42
2019-02-21T00:23:28.207Z,80.52
2019-02-21T00:24:28.128Z,80.42
2019-02-21T00:26:36.914Z,80.21
2019-02-21T00:27:36.956Z,80.97
2019-02-21T00:29:36.897Z,80.97
2019-02-21T00:31:45.956Z,81.18
2019-02-21T00:32:45.842Z,81.38
2019-02-21T00:33:45.932Z,81.59
2019-02-21T00:34:45.843Z,81.80
2019-02-21T00:35:45.918Z,82.25
2019-02-21T00:36:45.794Z,82.25
2019-02-21T00:37:45.836Z,82.04
2019-02-21T00:38:45.790Z,82.45
2019-02-21T00:39:45.880Z,82.45
2019-02-21T00:40:45.750Z,82.45
2019-02-21T00:41:45.858Z,82.56
2019-02-21T00:42:45.731Z,82.60
2019-02-21T00:43:45.769Z,82.50
2019-02-21T00:44:45.742Z,82.70
2019-02-21T00:45:45.789Z,82.70
2019-02-21T00:46:45.692Z,82.39
2019-02-21T00:47:45.820Z,82.70
2019-02-21T00:48:45.669Z,82.39
2019-02-21T00:49:45.743Z,82.43
2019-02-21T00:50:45.640Z,82.90
2019-02-21T00:51:45.731Z,83.11
2019-02-21T00:52:45.625Z,83.46
2019-02-21T00:53:45.640Z,83.77
2019-02-21T00:54:45.601Z,83.67
2019-02-21T00:55:45.675Z,83.56
2019-02-21T00:56:45.576Z,83.56
2019-02-21T00:57:45.663Z,83.67
2019-02-21T00:58:45.562Z,83.56
2019-02-21T00:59:45.576Z,83.98
2019-02-21T01:00:46.778Z,83.67
2019-02-21T01:01:45.590Z,83.98
2019-02-21T01:02:45.512Z,83.67
2019-02-21T01:03:45.600Z,84.29
2019-02-21T01:04:45.485Z,84.29
2019-02-21T01:05:46.566Z,84.22
2019-02-21T01:06:45.463Z,84.64
2019-02-21T01:07:45.526Z,84.33
2019-02-21T01:08:45.450Z,85.26
2019-02-21T01:10:46.583Z,84.95
2019-02-21T01:11:45.452Z,85.16
2019-02-21T01:12:45.398Z,84.84
2019-02-21T01:13:45.465Z,85.05
2019-02-21T01:14:45.382Z,85.57
2019-02-21T01:15:45.507Z,85.82
2019-02-21T01:16:45.381Z,85.99
2019-02-21T01:17:45.387Z,86.50
2019-02-21T01:18:45.333Z,85.99
2019-02-21T01:19:45.418Z,85.99
2019-02-21T01:20:45.336Z,85.78
2019-02-21T01:21:45.344Z,86.13
2019-02-21T01:22:45.289Z,86.54
2019-02-21T01:23:45.351Z,86.09
2019-02-21T01:24:45.264Z,86.81
2019-02-21T01:25:45.344Z,87.16
2019-02-21T01:26:45.270Z,86.33
2019-02-21T01:27:45.360Z,86.13
2019-02-21T01:28:45.220Z,86.60
2019-02-21T01:29:45.280Z,86.96
2019-02-21T01:30:45.198Z,86.85
2019-02-21T01:31:45.314Z,87.16
2019-02-21T01:32:45.174Z,87.23
2019-02-21T01:33:45.194Z,87.27
2019-02-21T01:34:45.152Z,87.16
2019-02-21T01:35:45.243Z,87.16
2019-02-21T01:36:45.164Z,87.57
2019-02-21T01:37:45.250Z,87.06
2019-02-21T01:38:45.119Z,87.27
2019-02-21T01:39:45.143Z,87.27
2019-02-21T01:40:45.084Z,87.37
2019-02-21T01:41:45.149Z,87.27
2019-02-21T01:42:45.084Z,87.57
2019-02-21T01:43:45.166Z,87.47
2019-02-21T01:44:45.083Z,87.47
2019-02-21T01:45:45.075Z,87.37
2019-02-21T01:46:45.022Z,87.72
2019-02-21T01:47:45.115Z,87.47
2019-02-21T01:48:44.998Z,87.68
2019-02-21T01:49:45.103Z,87.78
2019-02-21T01:50:44.983Z,87.27
2019-02-21T01:51:45.030Z,87.78
2019-02-21T01:52:44.950Z,87.68
2019-02-21T01:53:45.065Z,87.99
2019-02-21T01:54:44.930Z,87.57
2019-02-21T01:55:45.048Z,87.88
2019-02-21T01:56:44.908Z,87.88
2019-02-21T01:57:44.959Z,88.24
2019-02-21T01:58:44.911Z,88.03
2019-02-21T01:59:44.969Z,88.13
2019-02-21T02:00:44.863Z,88.03
2019-02-21T02:01:44.900Z,87.93
2019-02-21T02:02:44.876Z,88.45
2019-02-21T02:03:44.898Z,88.45
2019-02-21T02:04:44.816Z,88.65
2019-02-21T02:05:44.916Z,88.65
2019-02-21T02:06:44.800Z,89.21
2019-02-21T02:07:44.863Z,89.21
2019-02-21T02:08:44.774Z,89.21
2019-02-21T02:09:44.835Z,89.52
2019-02-21T02:10:44.752Z,89.42
2019-02-21T02:11:44.852Z,89.42
2019-02-21T02:12:44.760Z,90.04
2019-02-21T02:13:44.788Z,89.52
2019-02-21T02:14:44.707Z,89.52
2019-02-21T02:15:44.790Z,89.42
2019-02-21T02:16:44.680Z,89.21
2019-02-21T02:17:44.786Z,89.83
2019-02-21T02:18:44.686Z,89.42
2019-02-21T02:20:45.806Z,89.62
2019-02-21T02:21:44.708Z,89.62
2019-02-21T02:22:44.661Z,89.62
2019-02-21T02:23:44.750Z,89.42
2019-02-21T02:24:44.608Z,89.31
2019-02-21T02:25:44.637Z,89.31
2019-02-21T02:26:44.568Z,90.04
2019-02-21T02:27:44.650Z,89.73
2019-02-21T02:28:44.573Z,89.94
2019-02-21T02:29:44.564Z,89.83
2019-02-21T02:30:44.524Z,89.94
2019-02-21T02:32:45.646Z,89.94
2019-02-21T02:33:44.621Z,89.58
2019-02-21T02:34:44.478Z,89.52
2019-02-21T02:35:44.504Z,89.38
2019-02-21T02:36:44.465Z,89.38
2019-02-21T02:37:44.523Z,89.48
2019-02-21T02:38:44.456Z,89.28
2019-02-21T02:39:44.557Z,89.58
2019-02-21T02:40:44.417Z,89.38
2019-02-21T02:41:44.442Z,89.48
2019-02-21T02:42:44.390Z,89.79
2019-02-21T02:43:45.513Z,89.58
2019-02-21T02:44:44.374Z,89.38
2019-02-21T02:45:44.470Z,89.07
2019-02-21T02:46:44.358Z,89.28
2019-02-21T02:47:44.386Z,89.17
2019-02-21T02:48:44.360Z,89.34
2019-02-21T02:49:44.621Z,89.23
2019-02-21T02:50:44.302Z,88.92
2019-02-21T02:51:44.405Z,89.23
2019-02-21T02:52:44.283Z,89.34
2019-02-21T02:53:44.322Z,89.13
2019-02-21T02:54:44.283Z,88.92
2019-02-21T02:55:44.388Z,89.13
2019-02-21T02:56:44.240Z,89.34
2019-02-21T02:57:44.349Z,89.44
2019-02-21T02:58:45.624Z,88.71
2019-02-21T02:59:44.306Z,88.61
2019-02-21T03:00:44.189Z,88.46
2019-02-21T03:01:44.273Z,88.57
2019-02-21T03:02:44.167Z,88.06
2019-02-21T03:04:45.353Z,88.06
2019-02-21T03:05:44.224Z,88.16
2019-02-21T03:06:44.127Z,87.95
2019-02-21T03:07:44.208Z,87.95
2019-02-21T03:08:44.103Z,88.16
2019-02-21T03:09:44.122Z,88.40
2019-02-21T03:10:44.188Z,88.16
2019-02-21T03:11:44.132Z,88.06
2019-02-21T03:12:44.065Z,87.85
2019-02-21T03:13:44.176Z,87.85
2019-02-21T03:14:44.070Z,88.06
2019-02-21T03:15:44.098Z,88.16
2019-02-21T03:16:44.009Z,87.33
2019-02-21T03:17:44.076Z,87.33
2019-02-21T03:18:43.995Z,87.43
2019-02-21T03:19:44.091Z,87.60
2019-02-21T03:20:44.033Z,87.39
2019-02-21T03:21:44.000Z,87.18
2019-02-21T03:22:43.959Z,87.39
2019-02-21T03:23:44.012Z,87.33
2019-02-21T03:24:43.917Z,87.33
2019-02-21T03:25:44.057Z,87.43
2019-02-21T03:26:43.909Z,87.33
2019-02-21T03:27:43.940Z,87.39
2019-02-21T03:28:43.881Z,87.54
2019-02-21T03:29:43.952Z,87.64
2019-02-21T03:30:43.881Z,87.54
2019-02-21T03:31:54.745Z,87.54
2019-02-21T03:32:44.828Z,87.85
2019-02-21T03:33:43.879Z,87.95
2019-02-21T03:34:43.810Z,88.06
2019-02-21T03:35:43.921Z,87.85
2019-02-21T03:36:43.784Z,87.85
2019-02-21T03:37:43.827Z,88.06
2019-02-21T03:38:43.761Z,87.85
2019-02-21T03:39:43.815Z,87.85
2019-02-21T03:40:43.774Z,88.06
2019-02-21T03:41:43.861Z,88.26
2019-02-21T03:42:43.730Z,88.40
2019-02-21T03:43:43.745Z,88.40
2019-02-21T03:44:43.699Z,88.61
2019-02-21T03:45:43.755Z,88.57
2019-02-21T03:46:43.700Z,89.54
2019-02-21T03:47:43.769Z,89.44
2019-02-21T03:48:43.654Z,89.34
2019-02-21T03:50:44.761Z,89.03
2019-02-21T03:51:44.751Z,88.92
2019-02-21T03:52:43.605Z,89.13
2019-02-21T03:53:43.713Z,89.34
2019-02-21T03:54:43.602Z,89.28
2019-02-21T03:55:43.624Z,89.48
2019-02-21T03:56:43.595Z,89.48
2019-02-21T03:57:43.640Z,89.07
2019-02-21T03:58:43.537Z,89.38
2019-02-21T03:59:43.649Z,89.58
2019-02-21T04:00:43.520Z,89.38
2019-02-21T04:01:43.595Z,89.69
2019-02-21T04:02:43.498Z,89.38
2019-02-21T04:03:43.576Z,89.38
2019-02-21T04:04:43.492Z,89.38
2019-02-21T04:05:43.483Z,89.89
2019-02-21T04:06:43.487Z,89.69
2019-02-21T04:07:43.500Z,90.04
2019-02-21T04:08:43.429Z,89.79
2019-02-21T04:10:43.401Z,89.79
2019-02-21T04:11:43.460Z,89.31
2019-02-21T04:12:43.417Z,89.31
2019-02-21T04:13:43.442Z,89.48
2019-02-21T04:14:43.366Z,89.73
2019-02-21T04:15:43.453Z,90.04
2019-02-21T04:16:43.346Z,89.31
2019-02-21T04:17:44.425Z,89.42
2019-02-21T04:18:43.313Z,90.04
2019-02-21T04:19:43.381Z,90.14
2019-02-21T04:20:43.295Z,89.94
2019-02-21T04:21:43.391Z,90.35
2019-02-21T04:22:43.294Z,89.77
2019-02-21T04:23:43.305Z,89.94
2019-02-21T04:24:43.254Z,90.70
2019-02-21T04:25:43.338Z,90.60
2019-02-21T04:26:43.227Z,90.81
2019-02-21T04:27:43.364Z,90.39
2019-02-21T04:28:45.652Z,90.29
2019-02-21T04:29:43.245Z,90.29
2019-02-21T04:30:43.184Z,90.50
2019-02-21T04:31:43.260Z,90.39
2019-02-21T04:32:43.194Z,90.39
2019-02-21T04:33:43.271Z,90.70
2019-02-21T04:34:43.164Z,91.16
2019-02-21T04:35:43.187Z,91.37
2019-02-21T04:36:43.112Z,90.85
2019-02-21T04:37:43.231Z,90.85
2019-02-21T04:38:43.097Z,91.68
2019-02-21T04:40:44.206Z,91.78
2019-02-21T04:41:43.127Z,92.10
2019-02-21T04:42:43.078Z,92.51
2019-02-21T04:43:43.138Z,92.47
2019-02-21T04:44:43.037Z,92.10
2019-02-21T04:45:43.045Z,91.74
2019-02-21T04:46:43.002Z,92.26
2019-02-21T04:47:43.094Z,91.53
2019-02-21T04:48:43.007Z,91.74
2019-02-21T04:49:43.085Z,91.78
2019-02-21T04:50:42.960Z,91.58
2019-02-21T04:51:42.991Z,91.27
2019-02-21T04:52:42.937Z,91.16
2019-02-21T04:53:43.030Z,91.89
2019-02-21T04:54:42.912Z,91.68
2019-02-21T04:55:43.018Z,92.10
2019-02-21T04:56:42.905Z,91.99
2019-02-21T04:57:42.929Z,91.99
2019-02-21T04:58:42.905Z,92.10
2019-02-21T04:59:42.958Z,92.10
2019-02-21T05:00:42.848Z,91.99
2019-02-21T05:02:28.985Z,92.61
2019-02-21T05:02:43.902Z,92.20
2019-02-21T05:03:42.857Z,92.41
2019-02-21T05:04:42.908Z,92.41
2019-02-21T05:05:42.792Z,92.82
2019-02-21T05:07:43.901Z,91.99
2019-02-21T05:08:43.852Z,92.10
2019-02-21T05:09:42.748Z,92.20
2019-02-21T05:10:42.812Z,92.20
2019-02-21T05:11:42.728Z,91.89
2019-02-21T05:12:42.824Z,92.20
2019-02-21T05:13:42.712Z,92.10
2019-02-21T05:14:42.870Z,91.99
2019-02-21T05:15:42.704Z,92.10
2019-02-21T05:16:44.614Z,92.30
2019-02-21T05:17:42.656Z,91.99
2019-02-21T05:18:42.765Z,91.99
2019-02-21T05:19:42.661Z,92.10
2019-02-21T05:20:42.675Z,92.10
2019-02-21T05:21:42.616Z,91.99
2019-02-21T05:22:42.691Z,91.99
2019-02-21T05:23:42.597Z,91.99
2019-02-21T05:24:42.850Z,92.76
2019-02-21T05:25:42.569Z,92.51
2019-02-21T05:26:42.622Z,93.02
2019-02-21T05:27:42.569Z,93.07
2019-02-21T05:28:42.545Z,92.86
2019-02-21T05:29:42.562Z,92.97
2019-02-21T05:30:42.647Z,92.86
2019-02-21T05:31:42.502Z,92.97
2019-02-21T05:32:42.556Z,93.07
2019-02-21T05:33:42.481Z,93.07
2019-02-21T05:34:42.602Z,92.86
2019-02-21T05:35:42.491Z,92.76
2019-02-21T05:36:42.536Z,93.07
2019-02-21T05:37:42.449Z,93.28
2019-02-21T05:38:42.495Z,93.22
2019-02-21T05:39:42.417Z,93.07
2019-02-21T05:40:42.551Z,93.01
2019-02-21T05:41:42.413Z,93.32
2019-02-21T05:42:42.440Z,93.43
2019-02-21T05:43:42.446Z,93.53
2019-02-21T05:44:42.378Z,93.84
2019-02-21T05:45:42.390Z,93.43
2019-02-21T05:46:42.451Z,93.43
2019-02-21T05:47:42.340Z,94.05
2019-02-21T05:48:42.359Z,93.63
2019-02-21T05:49:42.311Z,94.36
2019-02-21T05:50:42.403Z,93.95
2019-02-21T05:51:42.292Z,93.74
2019-02-21T05:52:42.386Z,94.09
2019-02-21T05:53:42.265Z,93.78
2019-02-21T05:54:42.301Z,93.47
2019-02-21T05:55:42.266Z,93.99
2019-02-21T05:56:44.294Z,93.95
2019-02-21T05:57:42.218Z,94.20
2019-02-21T05:58:42.326Z,94.09
2019-02-21T05:59:42.199Z,93.99
2019-02-21T06:00:42.235Z,93.99
2019-02-21T06:01:42.208Z,94.20
2019-02-21T06:02:53.119Z,94.51
2019-02-21T06:03:43.281Z,94.92
2019-02-21T06:04:42.147Z,94.71
2019-02-21T06:05:42.332Z,94.92
2019-02-21T06:06:42.212Z,94.61
2019-02-21T06:07:42.110Z,94.82
2019-02-21T06:08:44.138Z,95.13
2019-02-21T06:09:42.370Z,95.38
2019-02-21T06:10:42.101Z,95.34
2019-02-21T06:11:42.117Z,95.54
2019-02-21T06:12:42.116Z,95.34
2019-02-21T06:13:44.613Z,95.34
2019-02-21T06:14:42.041Z,95.23
2019-02-21T06:15:42.023Z,95.54
2019-02-21T06:16:42.040Z,95.23
2019-02-21T06:17:41.998Z,95.23
2019-02-21T06:18:42.006Z,95.23
2019-02-21T06:19:41.976Z,94.98
2019-02-21T06:20:41.970Z,95.34
2019-02-21T06:21:41.983Z,95.65
2019-02-21T06:22:41.953Z,95.23
2019-02-21T06:23:41.933Z,95.75
2019-02-21T06:25:50.808Z,95.54
2019-02-21T06:26:42.925Z,95.23
2019-02-21T06:27:41.898Z,95.65
2019-02-21T06:28:41.885Z,95.23
2019-02-21T06:30:43.409Z,95.34
2019-02-21T06:31:41.887Z,95.19
2019-02-21T06:32:41.870Z,95.40
2019-02-21T06:33:41.840Z,95.09
2019-02-21T06:34:41.820Z,95.29
2019-02-21T06:35:41.811Z,94.88
2019-02-21T06:36:41.825Z,95.29
2019-02-21T06:37:41.811Z,95.29
2019-02-21T06:38:41.773Z,95.29
2019-02-21T06:39:41.808Z,95.19
2019-02-21T06:40:41.766Z,95.19
2019-02-21T06:41:42.777Z,95.19
2019-02-21T06:42:41.776Z,95.19
2019-02-21T06:44:42.831Z,95.25
2019-02-21T06:47:28.721Z,95.15
2019-02-21T06:48:28.784Z,94.84
2019-02-21T06:49:32.660Z,94.63
2019-02-21T06:50:28.689Z,94.63
2019-02-21T06:51:28.523Z,94.63
2019-02-21T06:52:28.599Z,94.53
2019-02-21T06:53:28.531Z,94.15
2019-02-21T06:54:28.594Z,94.63
2019-02-21T06:55:28.479Z,94.63
2019-02-21T06:57:29.609Z,94.94
2019-02-21T06:58:28.465Z,94.63
2019-02-21T06:59:28.434Z,94.94
2019-02-21T07:00:28.428Z,94.79
2019-02-21T07:01:29.595Z,94.17
2019-02-21T07:02:28.623Z,94.17
2019-02-21T07:03:29.138Z,94.27
2019-02-21T07:05:29.497Z,94.48
2019-02-21T07:06:31.814Z,93.65
2019-02-21T07:07:28.395Z,94.33
2019-02-21T07:08:28.345Z,93.44
2019-02-21T07:09:28.363Z,94.17
2019-02-21T07:10:28.319Z,93.71
2019-02-21T07:12:29.332Z,93.85
2019-02-21T07:13:28.286Z,93.50
2019-02-21T07:14:28.269Z,93.81
2019-02-21T07:15:28.264Z,93.85
2019-02-21T07:16:28.247Z,93.71
2019-02-21T07:17:28.243Z,93.71
2019-02-21T07:18:29.025Z,93.29
2019-02-21T07:19:28.220Z,93.60
2019-02-21T07:20:28.212Z,93.91
2019-02-21T07:21:28.198Z,93.81
2019-02-21T07:22:28.182Z,93.50
2019-02-21T07:23:28.205Z,93.60
2019-02-21T07:24:28.158Z,93.87
2019-02-21T07:25:28.153Z,93.35
2019-02-21T07:26:28.145Z,93.25
2019-02-21T07:27:28.131Z,93.15
2019-02-21T07:28:28.170Z,93.04
2019-02-21T07:29:28.110Z,93.10
2019-02-21T07:30:28.092Z,92.94
2019-02-21T07:31:29.634Z,92.69
2019-02-21T07:32:28.072Z,93.00
2019-02-21T07:33:29.156Z,92.85
2019-02-21T07:34:30.361Z,92.34
2019-02-21T07:35:28.051Z,92.65
2019-02-21T07:36:28.032Z,92.24
2019-02-21T07:37:28.019Z,91.82
2019-02-21T07:38:28.025Z,91.99
2019-02-21T07:39:35.625Z,91.36
2019-02-21T07:40:28.989Z,91.47
2019-02-21T07:41:28.001Z,91.05
2019-02-21T07:42:27.963Z,91.05
2019-02-21T07:43:27.969Z,90.70
2019-02-21T07:44:27.966Z,90.91
2019-02-21T07:46:29.047Z,90.19
2019-02-21T07:47:27.917Z,89.98
2019-02-21T07:48:27.898Z,89.94
2019-02-21T07:49:27.913Z,89.94
2019-02-21T07:50:27.903Z,90.14
2019-02-21T07:51:27.866Z,89.22
2019-02-21T07:52:27.854Z,89.28
2019-02-21T07:53:27.846Z,89.07
2019-02-21T07:54:27.847Z,88.82
2019-02-21T07:55:27.871Z,89.03
2019-02-21T07:56:27.805Z,88.34
2019-02-21T07:57:27.800Z,88.10
2019-02-21T07:58:27.798Z,87.54
2019-02-21T07:59:28.801Z,87.44
2019-02-21T08:00:27.758Z,87.13
2019-02-21T08:01:27.759Z,86.98
2019-02-21T08:02:27.739Z,86.68
2019-02-21T08:03:41.146Z,86.74
2019-02-21T08:04:28.756Z,87.15
2019-02-21T08:05:27.775Z,85.87
2019-02-21T08:06:27.695Z,85.25
2019-02-21T08:07:27.693Z,85.36
2019-02-21T08:08:27.667Z,85.05
2019-02-21T08:09:28.097Z,85.31
2019-02-21T08:10:33.589Z,84.29
2019-02-21T08:11:28.641Z,84.25
2019-02-21T08:12:27.625Z,83.63
2019-02-21T08:13:27.632Z,83.32
2019-02-21T08:14:27.607Z,83.42
2019-02-21T08:15:27.929Z,82.91
2019-02-21T08:16:27.582Z,83.01
2019-02-21T08:17:28.067Z,83.22
2019-02-21T08:18:27.563Z,83.22
2019-02-21T08:19:27.663Z,82.91
2019-02-21T08:20:34.185Z,83.32
2019-02-21T08:21:28.663Z,83.22
2019-02-21T08:22:27.540Z,83.32
2019-02-21T08:23:27.504Z,83.53
2019-02-21T08:24:27.496Z,83.73
2019-02-21T08:25:27.572Z,83.59
2019-02-21T08:26:27.519Z,83.63
2019-02-21T08:27:27.462Z,84.14
2019-02-21T08:28:27.459Z,83.32
2019-02-21T08:29:27.435Z,83.22
2019-02-21T08:30:29.225Z,82.97
2019-02-21T08:31:27.442Z,82.05
2019-02-21T08:32:27.411Z,82.56
2019-02-21T08:33:27.402Z,82.42
2019-02-21T08:34:27.389Z,82.77
2019-02-21T08:35:27.369Z,82.53
2019-02-21T08:36:27.393Z,82.01
2019-02-21T08:37:27.367Z,82.25
2019-02-21T08:38:27.347Z,82.25
2019-02-21T08:39:27.330Z,82.25
2019-02-21T08:40:27.323Z,82.77
2019-02-21T08:41:27.328Z,82.35
2019-02-21T08:42:27.299Z,82.42
2019-02-21T08:43:27.294Z,82.35
2019-02-21T08:44:28.879Z,82.35
2019-02-21T08:45:27.262Z,82.42
2019-02-21T08:46:27.281Z,82.46
2019-02-21T08:47:27.241Z,82.42
2019-02-21T08:49:28.344Z,82.42
2019-02-21T08:50:27.216Z,82.63
2019-02-21T08:51:27.227Z,82.42
2019-02-21T08:52:27.194Z,82.39
2019-02-21T08:53:28.140Z,82.59
2019-02-21T08:54:27.178Z,82.39
2019-02-21T08:55:27.153Z,81.97
2019-02-21T08:56:29.782Z,81.76
2019-02-21T08:57:27.136Z,81.87
2019-02-21T08:58:27.122Z,81.46
2019-02-21T08:59:27.111Z,81.42
2019-02-21T09:00:27.104Z,81.46
2019-02-21T09:01:27.080Z,80.91
2019-02-21T09:02:27.112Z,81.21
2019-02-21T09:03:27.069Z,81.52
2019-02-21T09:04:27.980Z,80.91
2019-02-21T09:05:27.045Z,80.70
2019-02-21T09:06:27.035Z,81.01
2019-02-21T09:07:27.047Z,80.91
2019-02-21T09:08:33.746Z,80.80
2019-02-21T09:09:28.002Z,80.60
2019-02-21T09:10:27.822Z,80.60
2019-02-21T09:11:26.974Z,80.49
2019-02-21T09:12:27.020Z,81.62
2019-02-21T09:13:26.966Z,81.21
2019-02-21T09:14:26.950Z,81.01
2019-02-21T09:15:26.937Z,81.11
2019-02-21T09:16:26.927Z,81.42
2019-02-21T09:17:26.940Z,81.21
2019-02-21T09:18:26.919Z,81.01
2019-02-21T09:19:26.890Z,81.11
2019-02-21T09:20:26.881Z,81.21
2019-02-21T09:21:26.868Z,80.80
2019-02-21T09:22:26.895Z,81.52
2019-02-21T09:23:26.854Z,80.60
2019-02-21T09:24:38.086Z,79.77
2019-02-21T09:25:27.826Z,80.60
2019-02-21T09:26:26.818Z,80.66
2019-02-21T09:27:26.837Z,79.67
2019-02-21T09:28:26.799Z,80.08
2019-02-21T09:29:26.788Z,79.53
2019-02-21T09:30:26.791Z,80.08
2019-02-21T09:31:26.757Z,79.88
2019-02-21T09:32:28.780Z,79.98
2019-02-21T09:33:26.769Z,80.56
2019-02-21T09:34:26.740Z,79.74
2019-02-21T09:35:26.719Z,79.94
2019-02-21T09:36:26.727Z,79.94
2019-02-21T09:37:26.692Z,79.22
2019-02-21T09:38:26.726Z,79.22
2019-02-21T09:39:26.674Z,79.12
2019-02-21T09:40:28.467Z,78.61
2019-02-21T09:41:28.587Z,78.78
2019-02-21T09:42:26.649Z,78.67
2019-02-21T09:43:26.680Z,78.64
2019-02-21T09:44:27.471Z,78.23
2019-02-21T09:45:26.611Z,78.33
2019-02-21T09:46:26.613Z,78.74
2019-02-21T09:47:26.585Z,78.23
2019-02-21T09:48:26.578Z,77.61
2019-02-21T09:49:26.591Z,78.12
2019-02-21T09:50:26.571Z,77.92
2019-02-21T09:51:26.539Z,78.33
2019-02-21T09:52:26.542Z,78.94
2019-02-21T09:53:26.572Z,78.23
2019-02-21T09:54:26.539Z,78.64
2019-02-21T09:55:26.494Z,79.05
2019-02-21T09:56:30.265Z,78.53
2019-02-21T09:57:26.471Z,77.81
2019-02-21T09:58:26.467Z,78.33
2019-02-21T09:59:28.738Z,78.09
2019-02-21T10:00:26.467Z,77.47
2019-02-21T10:01:26.441Z,77.88
2019-02-21T10:03:27.544Z,77.47
2019-02-21T10:04:32.162Z,77.17
2019-02-21T10:05:27.384Z,76.82
2019-02-21T10:06:26.417Z,77.03
2019-02-21T10:07:26.480Z,76.07
2019-02-21T10:08:26.436Z,76.07
2019-02-21T10:09:26.509Z,75.11
2019-02-21T10:10:26.580Z,75.31
2019-02-21T10:11:26.415Z,75.01
2019-02-21T10:12:26.626Z,75.73
2019-02-21T10:13:26.418Z,75.42
2019-02-21T10:14:26.736Z,75.21
2019-02-21T10:15:26.537Z,74.60
2019-02-21T10:16:26.493Z,75.01
2019-02-21T10:17:26.500Z,74.70
2019-02-21T10:18:26.245Z,75.93
2019-02-21T10:19:26.246Z,74.70
2019-02-21T10:20:26.249Z,74.49
2019-02-21T10:21:26.215Z,74.90
2019-02-21T10:22:26.347Z,75.31
2019-02-21T10:23:26.209Z,75.07
2019-02-21T10:24:26.183Z,74.49
2019-02-21T10:25:26.190Z,74.60
2019-02-21T10:26:26.163Z,75.18
2019-02-21T10:27:26.142Z,75.31
2019-02-21T10:28:26.131Z,75.07
2019-02-21T10:29:26.121Z,74.60
2019-02-21T10:30:26.139Z,75.01
2019-02-21T10:31:26.098Z,74.70
2019-02-21T10:32:26.088Z,75.69
2019-02-21T10:33:26.120Z,75.82
2019-02-21T10:34:26.069Z,76.24
2019-02-21T10:35:26.089Z,75.89
2019-02-21T10:36:26.048Z,76.10
2019-02-21T10:37:26.037Z,75.99
2019-02-21T10:38:26.030Z,75.07
2019-02-21T10:39:26.008Z,74.77
2019-02-21T10:40:26.042Z,74.63
2019-02-21T10:41:25.996Z,74.32
2019-02-21T10:42:25.990Z,73.68
2019-02-21T10:43:25.965Z,72.52
2019-02-21T10:44:25.959Z,71.56
2019-02-21T10:45:25.940Z,71.87
2019-02-21T10:46:25.964Z,71.05
2019-02-21T10:47:25.916Z,70.30
2019-02-21T10:48:25.914Z,70.40
2019-02-21T10:49:25.909Z,70.10
2019-02-21T10:50:25.892Z,70.27
2019-02-21T10:51:25.898Z,69.21
2019-02-21T10:52:25.877Z,70.14
2019-02-21T10:53:25.857Z,70.54
2019-02-21T10:54:25.851Z,68.91
2019-02-21T10:55:25.842Z,68.63
2019-02-21T10:56:25.850Z,69.76
2019-02-21T10:57:25.814Z,69.82
2019-02-21T10:58:25.800Z,69.08
2019-02-21T10:59:25.820Z,69.01
2019-02-21T11:00:25.796Z,69.32
2019-02-21T11:01:25.794Z,69.86
2019-02-21T11:02:25.756Z,69.82
2019-02-21T11:03:25.743Z,69.32
2019-02-21T11:04:25.737Z,69.52
2019-02-21T11:05:25.744Z,69.32
2019-02-21T11:06:25.741Z,68.19
2019-02-21T11:07:25.702Z,68.84
2019-02-21T11:08:25.692Z,69.04
2019-02-21T11:09:25.679Z,70.06
2019-02-21T11:10:25.675Z,69.76
2019-02-21T11:11:25.676Z,70.37
2019-02-21T11:12:25.684Z,69.35
2019-02-21T11:13:25.633Z,69.65
2019-02-21T11:14:25.624Z,69.45
2019-02-21T11:15:25.605Z,69.65
2019-02-21T11:16:25.649Z,69.65
2019-02-21T11:17:25.918Z,68.70
2019-02-21T11:18:25.584Z,68.67
2019-02-21T11:19:25.570Z,68.16
2019-02-21T11:20:25.560Z,68.80
2019-02-21T11:21:25.546Z,69.18
2019-02-21T11:22:25.564Z,68.91
2019-02-21T11:23:25.524Z,69.01
2019-02-21T11:24:25.524Z,68.19
2019-02-21T11:25:25.541Z,68.60
2019-02-21T11:26:25.496Z,68.70
2019-02-21T11:27:25.521Z,68.70
2019-02-21T11:28:25.475Z,68.67
2019-02-21T11:29:25.456Z,69.08
2019-02-21T11:30:25.451Z,67.96
2019-02-21T11:31:27.738Z,68.67
2019-02-21T11:32:25.456Z,68.77
2019-02-21T11:33:25.413Z,68.77
2019-02-21T11:34:25.414Z,68.33
2019-02-21T11:35:25.387Z,68.06
2019-02-21T11:36:25.380Z,68.13
2019-02-21T11:37:25.387Z,68.98
2019-02-21T11:38:25.361Z,67.41
2019-02-21T11:39:25.371Z,66.94
2019-02-21T11:40:25.342Z,66.74
2019-02-21T11:41:25.364Z,67.21
2019-02-21T11:42:25.396Z,66.91
2019-02-21T11:43:25.330Z,67.01
2019-02-21T11:44:25.298Z,67.11
2019-02-21T11:45:25.276Z,67.24
2019-02-21T11:46:25.282Z,67.11
2019-02-21T11:47:25.256Z,67.01
2019-02-21T11:48:25.389Z,67.62
2019-02-21T11:49:25.235Z,67.21
2019-02-21T11:50:25.230Z,66.91
2019-02-21T11:51:25.213Z,67.62
2019-02-21T11:52:25.285Z,67.52
2019-02-21T11:53:25.227Z,67.11
2019-02-21T11:54:27.202Z,66.83
2019-02-21T11:55:25.177Z,67.35
2019-02-21T11:56:25.161Z,68.16
2019-02-21T11:57:25.159Z,67.96
2019-02-21T11:58:25.168Z,67.96
2019-02-21T11:59:25.144Z,67.65
2019-02-21T12:00:25.125Z,67.85
2019-02-21T12:01:25.109Z,68.50
2019-02-21T12:02:25.102Z,70.23
2019-02-21T12:03:25.099Z,71.87
2019-02-21T12:04:25.070Z,71.56
2019-02-21T12:05:31.389Z,72.41
2019-02-21T12:06:26.051Z,72.21
2019-02-21T12:07:25.057Z,71.91
2019-02-21T12:08:25.057Z,72.11
2019-02-21T12:09:25.013Z,71.59
2019-02-21T12:10:25.005Z,71.15
2019-02-21T12:11:24.986Z,71.67
2019-02-21T12:12:24.989Z,71.67
2019-02-21T12:13:25.003Z,71.43
2019-02-21T12:14:24.960Z,70.78
2019-02-21T12:15:24.946Z,69.96
2019-02-21T12:16:24.936Z,67.99
2019-02-21T12:17:24.920Z,67.49
2019-02-21T12:18:24.946Z,66.64
2019-02-21T12:19:24.902Z,66.71
2019-02-21T12:20:24.904Z,65.89
2019-02-21T12:21:24.908Z,66.10
2019-02-21T12:22:24.867Z,66.85
2019-02-21T12:23:24.863Z,64.57
2019-02-21T12:24:24.878Z,64.98
2019-02-21T12:25:24.834Z,63.62
2019-02-21T12:26:24.827Z,63.62
2019-02-21T12:27:24.810Z,64.37
2019-02-21T12:28:24.808Z,63.35
2019-02-21T12:29:24.822Z,63.76
2019-02-21T12:30:24.791Z,64.60
2019-02-21T12:31:24.767Z,64.50
2019-02-21T12:32:24.764Z,64.20
2019-02-21T12:33:24.747Z,63.76
2019-02-21T12:34:24.759Z,63.56
2019-02-21T12:35:29.555Z,62.97
2019-02-21T12:36:25.722Z,64.26
2019-02-21T12:37:24.706Z,63.53
2019-02-21T12:38:24.707Z,63.45
2019-02-21T12:39:24.735Z,64.44
2019-02-21T12:40:24.697Z,64.03
2019-02-21T12:41:24.664Z,63.42
2019-02-21T12:42:24.657Z,63.22
2019-02-21T12:43:24.629Z,63.35
2019-02-21T12:44:24.629Z,63.65
2019-02-21T12:45:24.773Z,64.64
2019-02-21T12:46:24.606Z,63.19
2019-02-21T12:47:24.584Z,64.11
2019-02-21T12:48:24.586Z,62.37
2019-02-21T12:49:24.600Z,62.45
2019-02-21T12:50:24.591Z,62.35
2019-02-21T12:51:24.546Z,60.41
2019-02-21T12:52:24.541Z,60.69
2019-02-21T12:53:24.523Z,58.33
2019-02-21T12:54:24.831Z,58.80
2019-02-21T12:55:29.209Z,58.09
2019-02-21T12:57:25.617Z,57.68
2019-02-21T12:58:24.483Z,58.63
2019-02-21T12:59:24.455Z,56.90
2019-02-21T13:00:24.504Z,57.34
2019-02-21T13:01:24.441Z,58.07
2019-02-21T13:02:24.435Z,57.49
2019-02-21T13:03:24.408Z,57.79
2019-02-21T13:04:24.412Z,58.84
2019-02-21T13:05:24.436Z,59.78
2019-02-21T13:06:24.404Z,59.89
2019-02-21T13:07:24.365Z,60.39
2019-02-21T13:08:24.365Z,60.60
2019-02-21T13:09:24.363Z,60.60
2019-02-21T13:10:24.369Z,60.06
2019-02-21T13:11:24.329Z,59.89
2019-02-21T13:12:24.315Z,60.83
2019-02-21T13:13:24.300Z,61.14
2019-02-21T13:14:24.291Z,60.53
2019-02-21T13:15:24.321Z,61.37
2019-02-21T13:16:24.277Z,62.29
2019-02-21T13:17:24.267Z,61.14
2019-02-21T13:18:24.247Z,62.46